sensor_id;sensor_type;location;lat;lon;timestamp;temperature;humidity
68556;HTU21D;55544;51.032;5.866;2023-04-15T00:01:22;10.38;61.15
68556;HTU21D;55544;51.032;5.866;2023-04-15T00:03:53;10.41;61.18
68556;HTU21D;55544;51.032;5.866;2023-04-15T00:06:22;10.43;60.70
68556;HTU21D;55544;51.032;5.866;2023-04-15T00:08:48;10.45;61.02
68556;HTU21D;55544;51.032;5.866;2023-04-15T00:11:15;10.42;61.24
68556;HTU21D;55544;51.032;5.866;2023-04-15T00:13:41;10.33;61.15
68556;HTU21D;55544;51.032;5.866;2023-04-15T00:16:09;10.25;61.94
68556;HTU21D;55544;51.032;5.866;2023-04-15T00:18:35;10.21;62.70
68556;HTU21D;55544;51.032;5.866;2023-04-15T00:21:02;10.16;62.70
68556;HTU21D;55544;51.032;5.866;2023-04-15T00:23:28;10.13;62.92
68556;HTU21D;55544;51.032;5.866;2023-04-15T00:25:54;10.15;62.92
68556;HTU21D;55544;51.032;5.866;2023-04-15T00:28:20;10.18;62.31
68556;HTU21D;55544;51.032;5.866;2023-04-15T00:30:46;10.20;61.92
68556;HTU21D;55544;51.032;5.866;2023-04-15T00:33:14;10.19;62.02
68556;HTU21D;55544;51.032;5.866;2023-04-15T00:35:43;10.18;62.15
68556;HTU21D;55544;51.032;5.866;2023-04-15T00:38:09;10.15;62.21
68556;HTU21D;55544;51.032;5.866;2023-04-15T00:40:35;10.16;62.36
68556;HTU21D;55544;51.032;5.866;2023-04-15T00:43:01;10.18;62.16
68556;HTU21D;55544;51.032;5.866;2023-04-15T00:45:27;10.19;62.11
68556;HTU21D;55544;51.032;5.866;2023-04-15T00:47:54;10.16;62.02
68556;HTU21D;55544;51.032;5.866;2023-04-15T00:50:20;10.16;61.96
68556;HTU21D;55544;51.032;5.866;2023-04-15T00:52:47;10.13;62.01
68556;HTU21D;55544;51.032;5.866;2023-04-15T00:55:14;10.12;61.97
68556;HTU21D;55544;51.032;5.866;2023-04-15T00:57:40;10.15;61.91
68556;HTU21D;55544;51.032;5.866;2023-04-15T01:00:07;10.10;61.92
68556;HTU21D;55544;51.032;5.866;2023-04-15T01:02:34;10.13;61.87
68556;HTU21D;55544;51.032;5.866;2023-04-15T01:05:02;10.11;61.86
68556;HTU21D;55544;51.032;5.866;2023-04-15T01:07:29;10.12;61.84
68556;HTU21D;55544;51.032;5.866;2023-04-15T01:09:55;10.11;61.83
68556;HTU21D;55544;51.032;5.866;2023-04-15T01:12:23;10.08;61.75
68556;HTU21D;55544;51.032;5.866;2023-04-15T01:14:50;10.07;61.85
68556;HTU21D;55544;51.032;5.866;2023-04-15T01:17:16;10.05;61.88
68556;HTU21D;55544;51.032;5.866;2023-04-15T01:19:42;10.03;61.99
68556;HTU21D;55544;51.032;5.866;2023-04-15T01:22:08;10.01;62.08
68556;HTU21D;55544;51.032;5.866;2023-04-15T01:24:37;9.99;62.07
68556;HTU21D;55544;51.032;5.866;2023-04-15T01:27:03;9.98;62.18
68556;HTU21D;55544;51.032;5.866;2023-04-15T01:29:31;9.96;62.37
68556;HTU21D;55544;51.032;5.866;2023-04-15T01:31:58;9.96;62.50
68556;HTU21D;55544;51.032;5.866;2023-04-15T01:34:25;9.92;62.52
68556;HTU21D;55544;51.032;5.866;2023-04-15T01:36:53;9.88;62.44
68556;HTU21D;55544;51.032;5.866;2023-04-15T01:39:20;9.83;62.83
68556;HTU21D;55544;51.032;5.866;2023-04-15T01:41:46;9.82;63.04
68556;HTU21D;55544;51.032;5.866;2023-04-15T01:44:12;9.79;63.01
68556;HTU21D;55544;51.032;5.866;2023-04-15T01:46:38;9.78;62.94
68556;HTU21D;55544;51.032;5.866;2023-04-15T01:49:04;9.79;63.00
68556;HTU21D;55544;51.032;5.866;2023-04-15T01:51:31;9.81;62.98
68556;HTU21D;55544;51.032;5.866;2023-04-15T01:53:57;9.81;62.94
68556;HTU21D;55544;51.032;5.866;2023-04-15T01:56:23;9.83;62.86
68556;HTU21D;55544;51.032;5.866;2023-04-15T01:58:49;9.79;62.78
68556;HTU21D;55544;51.032;5.866;2023-04-15T02:01:15;9.74;63.08
68556;HTU21D;55544;51.032;5.866;2023-04-15T02:03:41;9.76;63.27
68556;HTU21D;55544;51.032;5.866;2023-04-15T02:06:07;9.77;63.22
68556;HTU21D;55544;51.032;5.866;2023-04-15T02:08:32;9.78;63.25
68556;HTU21D;55544;51.032;5.866;2023-04-15T02:10:58;9.79;63.35
68556;HTU21D;55544;51.032;5.866;2023-04-15T02:13:25;9.77;63.40
68556;HTU21D;55544;51.032;5.866;2023-04-15T02:15:53;9.78;63.47
68556;HTU21D;55544;51.032;5.866;2023-04-15T02:18:19;9.79;63.44
68556;HTU21D;55544;51.032;5.866;2023-04-15T02:20:45;9.76;63.38
68556;HTU21D;55544;51.032;5.866;2023-04-15T02:23:11;9.72;63.37
68556;HTU21D;55544;51.032;5.866;2023-04-15T02:25:37;9.69;63.02
68556;HTU21D;55544;51.032;5.866;2023-04-15T02:28:06;9.60;63.18
68556;HTU21D;55544;51.032;5.866;2023-04-15T02:30:32;9.55;63.34
68556;HTU21D;55544;51.032;5.866;2023-04-15T02:33:01;9.52;63.42
68556;HTU21D;55544;51.032;5.866;2023-04-15T02:35:27;9.48;63.39
68556;HTU21D;55544;51.032;5.866;2023-04-15T02:37:53;9.42;63.31
68556;HTU21D;55544;51.032;5.866;2023-04-15T02:40:19;9.36;63.39
68556;HTU21D;55544;51.032;5.866;2023-04-15T02:42:45;9.33;63.36
68556;HTU21D;55544;51.032;5.866;2023-04-15T02:45:14;9.31;63.25
68556;HTU21D;55544;51.032;5.866;2023-04-15T02:47:41;9.26;63.18
68556;HTU21D;55544;51.032;5.866;2023-04-15T02:50:11;9.11;63.75
68556;HTU21D;55544;51.032;5.866;2023-04-15T02:52:39;9.10;63.76
68556;HTU21D;55544;51.032;5.866;2023-04-15T02:55:06;9.11;63.56
68556;HTU21D;55544;51.032;5.866;2023-04-15T02:57:32;9.06;63.54
68556;HTU21D;55544;51.032;5.866;2023-04-15T03:00:04;9.00;63.94
68556;HTU21D;55544;51.032;5.866;2023-04-15T03:02:33;8.93;64.29
68556;HTU21D;55544;51.032;5.866;2023-04-15T03:05:00;8.90;64.55
68556;HTU21D;55544;51.032;5.866;2023-04-15T03:07:26;8.90;64.64
68556;HTU21D;55544;51.032;5.866;2023-04-15T03:09:52;8.89;64.53
68556;HTU21D;55544;51.032;5.866;2023-04-15T03:12:18;8.85;64.60
68556;HTU21D;55544;51.032;5.866;2023-04-15T03:14:44;8.85;64.53
68556;HTU21D;55544;51.032;5.866;2023-04-15T03:17:09;8.87;64.52
68556;HTU21D;55544;51.032;5.866;2023-04-15T03:19:36;8.89;64.34
68556;HTU21D;55544;51.032;5.866;2023-04-15T03:22:03;8.90;64.22
68556;HTU21D;55544;51.032;5.866;2023-04-15T03:24:28;8.88;64.12
68556;HTU21D;55544;51.032;5.866;2023-04-15T03:26:56;8.89;64.01
68556;HTU21D;55544;51.032;5.866;2023-04-15T03:29:22;8.89;63.91
68556;HTU21D;55544;51.032;5.866;2023-04-15T03:31:48;8.90;63.69
68556;HTU21D;55544;51.032;5.866;2023-04-15T03:34:15;8.86;63.67
68556;HTU21D;55544;51.032;5.866;2023-04-15T03:36:40;8.81;63.76
68556;HTU21D;55544;51.032;5.866;2023-04-15T03:39:06;8.77;63.95
68556;HTU21D;55544;51.032;5.866;2023-04-15T03:41:32;8.73;64.05
68556;HTU21D;55544;51.032;5.866;2023-04-15T03:43:58;8.74;64.17
68556;HTU21D;55544;51.032;5.866;2023-04-15T03:46:23;8.72;64.32
68556;HTU21D;55544;51.032;5.866;2023-04-15T03:48:50;8.70;64.37
68556;HTU21D;55544;51.032;5.866;2023-04-15T03:51:15;8.68;64.37
68556;HTU21D;55544;51.032;5.866;2023-04-15T03:53:41;8.67;64.43
68556;HTU21D;55544;51.032;5.866;2023-04-15T03:56:07;8.66;64.47
68556;HTU21D;55544;51.032;5.866;2023-04-15T03:58:32;8.64;64.52
68556;HTU21D;55544;51.032;5.866;2023-04-15T04:00:58;8.63;64.53
68556;HTU21D;55544;51.032;5.866;2023-04-15T04:03:24;8.63;64.60
68556;HTU21D;55544;51.032;5.866;2023-04-15T04:05:50;8.63;64.69
68556;HTU21D;55544;51.032;5.866;2023-04-15T04:08:16;8.64;64.79
68556;HTU21D;55544;51.032;5.866;2023-04-15T04:10:43;8.65;64.80
68556;HTU21D;55544;51.032;5.866;2023-04-15T04:13:09;8.65;64.82
68556;HTU21D;55544;51.032;5.866;2023-04-15T04:15:35;8.67;64.63
68556;HTU21D;55544;51.032;5.866;2023-04-15T04:18:01;8.63;64.65
68556;HTU21D;55544;51.032;5.866;2023-04-15T04:20:26;8.59;64.92
68556;HTU21D;55544;51.032;5.866;2023-04-15T04:22:52;8.57;65.10
68556;HTU21D;55544;51.032;5.866;2023-04-15T04:25:18;8.56;65.12
68556;HTU21D;55544;51.032;5.866;2023-04-15T04:27:43;8.55;65.13
68556;HTU21D;55544;51.032;5.866;2023-04-15T04:30:10;8.53;65.20
68556;HTU21D;55544;51.032;5.866;2023-04-15T04:32:36;8.52;65.18
68556;HTU21D;55544;51.032;5.866;2023-04-15T04:35:02;8.52;65.13
68556;HTU21D;55544;51.032;5.866;2023-04-15T04:37:28;8.50;64.92
68556;HTU21D;55544;51.032;5.866;2023-04-15T04:39:54;8.48;64.97
68556;HTU21D;55544;51.032;5.866;2023-04-15T04:42:20;8.41;65.18
68556;HTU21D;55544;51.032;5.866;2023-04-15T04:44:45;8.35;65.39
68556;HTU21D;55544;51.032;5.866;2023-04-15T04:47:11;8.33;65.31
68556;HTU21D;55544;51.032;5.866;2023-04-15T04:49:37;8.30;65.50
68556;HTU21D;55544;51.032;5.866;2023-04-15T04:52:03;8.23;65.84
68556;HTU21D;55544;51.032;5.866;2023-04-15T04:54:28;8.13;66.58
68556;HTU21D;55544;51.032;5.866;2023-04-15T04:56:55;8.07;67.10
68556;HTU21D;55544;51.032;5.866;2023-04-15T04:59:22;8.06;67.00
68556;HTU21D;55544;51.032;5.866;2023-04-15T05:01:48;8.07;66.68
68556;HTU21D;55544;51.032;5.866;2023-04-15T05:04:14;8.06;66.68
68556;HTU21D;55544;51.032;5.866;2023-04-15T05:06:40;7.96;66.84
68556;HTU21D;55544;51.032;5.866;2023-04-15T05:09:06;7.94;67.09
68556;HTU21D;55544;51.032;5.866;2023-04-15T05:11:32;7.94;66.99
68556;HTU21D;55544;51.032;5.866;2023-04-15T05:13:58;7.93;66.90
68556;HTU21D;55544;51.032;5.866;2023-04-15T05:16:26;7.94;66.88
68556;HTU21D;55544;51.032;5.866;2023-04-15T05:18:51;7.98;66.85
68556;HTU21D;55544;51.032;5.866;2023-04-15T05:21:17;8.00;66.72
68556;HTU21D;55544;51.032;5.866;2023-04-15T05:23:43;8.00;66.56
68556;HTU21D;55544;51.032;5.866;2023-04-15T05:26:09;8.00;66.58
68556;HTU21D;55544;51.032;5.866;2023-04-15T05:28:34;7.99;66.66
68556;HTU21D;55544;51.032;5.866;2023-04-15T05:31:00;7.92;66.82
68556;HTU21D;55544;51.032;5.866;2023-04-15T05:33:26;7.88;67.10
68556;HTU21D;55544;51.032;5.866;2023-04-15T05:35:52;7.86;67.06
68556;HTU21D;55544;51.032;5.866;2023-04-15T05:38:18;7.86;67.08
68556;HTU21D;55544;51.032;5.866;2023-04-15T05:40:43;7.84;67.07
68556;HTU21D;55544;51.032;5.866;2023-04-15T05:43:09;7.86;67.24
68556;HTU21D;55544;51.032;5.866;2023-04-15T05:45:35;7.85;67.51
68556;HTU21D;55544;51.032;5.866;2023-04-15T05:48:00;7.84;67.65
68556;HTU21D;55544;51.032;5.866;2023-04-15T05:50:26;7.88;67.48
68556;HTU21D;55544;51.032;5.866;2023-04-15T05:52:52;7.88;67.55
68556;HTU21D;55544;51.032;5.866;2023-04-15T05:55:18;7.85;67.72
68556;HTU21D;55544;51.032;5.866;2023-04-15T05:57:43;7.87;67.78
68556;HTU21D;55544;51.032;5.866;2023-04-15T06:00:10;7.91;68.05
68556;HTU21D;55544;51.032;5.866;2023-04-15T06:02:36;7.97;68.46
68556;HTU21D;55544;51.032;5.866;2023-04-15T06:05:01;7.98;69.16
68556;HTU21D;55544;51.032;5.866;2023-04-15T06:07:28;7.90;69.84
68556;HTU21D;55544;51.032;5.866;2023-04-15T06:09:53;7.86;70.13
68556;HTU21D;55544;51.032;5.866;2023-04-15T06:12:19;7.89;69.97
68556;HTU21D;55544;51.032;5.866;2023-04-15T06:14:45;7.89;70.16
68556;HTU21D;55544;51.032;5.866;2023-04-15T06:17:11;7.85;70.51
68556;HTU21D;55544;51.032;5.866;2023-04-15T06:19:39;7.83;70.67
68556;HTU21D;55544;51.032;5.866;2023-04-15T06:22:05;7.84;70.35
68556;HTU21D;55544;51.032;5.866;2023-04-15T06:24:31;7.83;70.43
68556;HTU21D;55544;51.032;5.866;2023-04-15T06:26:57;7.86;70.68
68556;HTU21D;55544;51.032;5.866;2023-04-15T06:29:23;7.88;70.61
68556;HTU21D;55544;51.032;5.866;2023-04-15T06:31:49;7.90;70.98
68556;HTU21D;55544;51.032;5.866;2023-04-15T06:34:15;7.90;71.30
68556;HTU21D;55544;51.032;5.866;2023-04-15T06:36:41;7.96;71.63
68556;HTU21D;55544;51.032;5.866;2023-04-15T06:39:07;7.96;72.10
68556;HTU21D;55544;51.032;5.866;2023-04-15T06:41:33;7.91;72.53
68556;HTU21D;55544;51.032;5.866;2023-04-15T06:43:59;7.93;72.80
68556;HTU21D;55544;51.032;5.866;2023-04-15T06:46:25;8.03;72.61
68556;HTU21D;55544;51.032;5.866;2023-04-15T06:48:51;8.15;72.32
68556;HTU21D;55544;51.032;5.866;2023-04-15T06:51:16;8.23;72.22
68556;HTU21D;55544;51.032;5.866;2023-04-15T06:53:42;8.28;72.36
68556;HTU21D;55544;51.032;5.866;2023-04-15T06:56:08;8.35;72.54
68556;HTU21D;55544;51.032;5.866;2023-04-15T06:58:34;8.39;72.68
68556;HTU21D;55544;51.032;5.866;2023-04-15T07:01:00;8.48;72.51
68556;HTU21D;55544;51.032;5.866;2023-04-15T07:03:26;8.59;72.04
68556;HTU21D;55544;51.032;5.866;2023-04-15T07:05:52;8.64;71.77
68556;HTU21D;55544;51.032;5.866;2023-04-15T07:08:19;8.76;71.15
68556;HTU21D;55544;51.032;5.866;2023-04-15T07:10:45;8.89;70.28
68556;HTU21D;55544;51.032;5.866;2023-04-15T07:13:11;9.04;69.68
68556;HTU21D;55544;51.032;5.866;2023-04-15T07:15:37;9.17;69.16
68556;HTU21D;55544;51.032;5.866;2023-04-15T07:18:03;9.30;68.66
68556;HTU21D;55544;51.032;5.866;2023-04-15T07:20:29;9.42;68.25
68556;HTU21D;55544;51.032;5.866;2023-04-15T07:22:55;9.55;68.04
68556;HTU21D;55544;51.032;5.866;2023-04-15T07:25:20;9.66;67.94
68556;HTU21D;55544;51.032;5.866;2023-04-15T07:27:46;9.78;67.95
68556;HTU21D;55544;51.032;5.866;2023-04-15T07:30:12;9.92;67.98
68556;HTU21D;55544;51.032;5.866;2023-04-15T07:32:38;10.05;68.07
68556;HTU21D;55544;51.032;5.866;2023-04-15T07:35:04;10.21;68.09
68556;HTU21D;55544;51.032;5.866;2023-04-15T07:37:30;10.35;67.97
68556;HTU21D;55544;51.032;5.866;2023-04-15T07:39:56;10.48;67.93
68556;HTU21D;55544;51.032;5.866;2023-04-15T07:42:21;10.63;67.78
68556;HTU21D;55544;51.032;5.866;2023-04-15T07:44:47;10.79;67.80
68556;HTU21D;55544;51.032;5.866;2023-04-15T07:47:13;10.94;67.62
68556;HTU21D;55544;51.032;5.866;2023-04-15T07:49:40;11.09;67.65
68556;HTU21D;55544;51.032;5.866;2023-04-15T07:52:07;11.25;67.98
68556;HTU21D;55544;51.032;5.866;2023-04-15T07:54:33;11.39;67.78
68556;HTU21D;55544;51.032;5.866;2023-04-15T07:56:59;11.44;67.81
68556;HTU21D;55544;51.032;5.866;2023-04-15T07:59:24;11.54;68.13
68556;HTU21D;55544;51.032;5.866;2023-04-15T08:01:52;11.68;68.48
68556;HTU21D;55544;51.032;5.866;2023-04-15T08:04:17;11.83;68.39
68556;HTU21D;55544;51.032;5.866;2023-04-15T08:06:43;12.00;68.29
68556;HTU21D;55544;51.032;5.866;2023-04-15T08:09:09;12.13;67.55
68556;HTU21D;55544;51.032;5.866;2023-04-15T08:11:35;12.23;67.04
68556;HTU21D;55544;51.032;5.866;2023-04-15T08:14:01;12.34;66.91
68556;HTU21D;55544;51.032;5.866;2023-04-15T08:16:27;12.48;66.78
68556;HTU21D;55544;51.032;5.866;2023-04-15T08:18:55;12.60;66.33
68556;HTU21D;55544;51.032;5.866;2023-04-15T08:21:21;12.70;65.58
68556;HTU21D;55544;51.032;5.866;2023-04-15T08:23:49;12.78;65.42
68556;HTU21D;55544;51.032;5.866;2023-04-15T08:26:16;12.93;65.29
68556;HTU21D;55544;51.032;5.866;2023-04-15T08:28:44;13.11;64.60
68556;HTU21D;55544;51.032;5.866;2023-04-15T08:31:10;13.23;63.97
68556;HTU21D;55544;51.032;5.866;2023-04-15T08:33:36;13.35;62.44
68556;HTU21D;55544;51.032;5.866;2023-04-15T08:36:02;13.40;61.76
68556;HTU21D;55544;51.032;5.866;2023-04-15T08:38:27;13.49;60.99
68556;HTU21D;55544;51.032;5.866;2023-04-15T08:40:55;13.59;60.64
68556;HTU21D;55544;51.032;5.866;2023-04-15T08:43:31;13.62;60.32
68556;HTU21D;55544;51.032;5.866;2023-04-15T08:45:59;13.71;59.66
68556;HTU21D;55544;51.032;5.866;2023-04-15T08:48:32;13.73;59.35
68556;HTU21D;55544;51.032;5.866;2023-04-15T08:50:59;13.83;59.19
68556;HTU21D;55544;51.032;5.866;2023-04-15T08:53:28;13.94;59.03
68556;HTU21D;55544;51.032;5.866;2023-04-15T08:55:56;14.11;58.64
68556;HTU21D;55544;51.032;5.866;2023-04-15T08:58:23;14.20;58.36
68556;HTU21D;55544;51.032;5.866;2023-04-15T09:00:49;14.24;57.85
68556;HTU21D;55544;51.032;5.866;2023-04-15T09:03:15;14.27;57.84
68556;HTU21D;55544;51.032;5.866;2023-04-15T09:05:43;14.27;57.60
68556;HTU21D;55544;51.032;5.866;2023-04-15T09:08:08;14.26;57.52
68556;HTU21D;55544;51.032;5.866;2023-04-15T09:10:34;14.33;57.62
68556;HTU21D;55544;51.032;5.866;2023-04-15T09:13:00;14.47;57.69
68556;HTU21D;55544;51.032;5.866;2023-04-15T09:15:27;14.66;57.23
68556;HTU21D;55544;51.032;5.866;2023-04-15T09:17:54;14.84;56.86
68556;HTU21D;55544;51.032;5.866;2023-04-15T09:20:21;15.03;55.51
68556;HTU21D;55544;51.032;5.866;2023-04-15T09:22:48;15.17;54.95
68556;HTU21D;55544;51.032;5.866;2023-04-15T09:27:54;15.12;54.33
68556;HTU21D;55544;51.032;5.866;2023-04-15T09:30:21;15.18;55.03
68556;HTU21D;55544;51.032;5.866;2023-04-15T09:32:54;15.38;54.53
68556;HTU21D;55544;51.032;5.866;2023-04-15T09:35:22;15.49;52.19
68556;HTU21D;55544;51.032;5.866;2023-04-15T09:37:49;15.60;51.28
68556;HTU21D;55544;51.032;5.866;2023-04-15T09:40:31;15.76;50.87
68556;HTU21D;55544;51.032;5.866;2023-04-15T09:42:58;15.86;51.12
68556;HTU21D;55544;51.032;5.866;2023-04-15T09:45:23;15.88;51.11
68556;HTU21D;55544;51.032;5.866;2023-04-15T09:47:50;15.91;51.24
68556;HTU21D;55544;51.032;5.866;2023-04-15T09:50:17;15.95;50.66
68556;HTU21D;55544;51.032;5.866;2023-04-15T09:52:44;15.99;49.67
68556;HTU21D;55544;51.032;5.866;2023-04-15T09:55:11;16.04;49.63
68556;HTU21D;55544;51.032;5.866;2023-04-15T09:57:38;16.14;49.50
68556;HTU21D;55544;51.032;5.866;2023-04-15T10:00:07;16.22;49.59
68556;HTU21D;55544;51.032;5.866;2023-04-15T10:02:34;16.33;49.59
68556;HTU21D;55544;51.032;5.866;2023-04-15T10:05:02;16.40;49.44
68556;HTU21D;55544;51.032;5.866;2023-04-15T10:07:28;16.47;49.08
68556;HTU21D;55544;51.032;5.866;2023-04-15T10:09:56;16.62;49.12
68556;HTU21D;55544;51.032;5.866;2023-04-15T10:12:25;16.86;48.37
68556;HTU21D;55544;51.032;5.866;2023-04-15T10:14:56;16.99;47.54
68556;HTU21D;55544;51.032;5.866;2023-04-15T10:17:26;17.14;47.73
68556;HTU21D;55544;51.032;5.866;2023-04-15T10:19:54;17.29;47.40
68556;HTU21D;55544;51.032;5.866;2023-04-15T10:22:22;17.44;46.44
68556;HTU21D;55544;51.032;5.866;2023-04-15T10:24:47;17.52;44.71
68556;HTU21D;55544;51.032;5.866;2023-04-15T10:27:16;17.46;45.03
68556;HTU21D;55544;51.032;5.866;2023-04-15T10:29:42;17.45;45.78
68556;HTU21D;55544;51.032;5.866;2023-04-15T10:32:10;17.35;45.57
68556;HTU21D;55544;51.032;5.866;2023-04-15T10:34:36;17.25;45.87
68556;HTU21D;55544;51.032;5.866;2023-04-15T10:37:03;17.31;46.31
68556;HTU21D;55544;51.032;5.866;2023-04-15T10:42:15;17.62;44.32
68556;HTU21D;55544;51.032;5.866;2023-04-15T10:44:43;17.78;43.51
68556;HTU21D;55544;51.032;5.866;2023-04-15T10:47:15;17.82;43.20
68556;HTU21D;55544;51.032;5.866;2023-04-15T10:49:48;17.75;43.29
68556;HTU21D;55544;51.032;5.866;2023-04-15T10:52:16;17.62;42.81
68556;HTU21D;55544;51.032;5.866;2023-04-15T10:54:44;17.60;43.16
68556;HTU21D;55544;51.032;5.866;2023-04-15T10:57:15;17.66;43.06
68556;HTU21D;55544;51.032;5.866;2023-04-15T11:02:53;17.66;43.18
68556;HTU21D;55544;51.032;5.866;2023-04-15T11:05:22;17.67;43.47
68556;HTU21D;55544;51.032;5.866;2023-04-15T11:07:53;17.65;43.48
68556;HTU21D;55544;51.032;5.866;2023-04-15T11:12:53;17.92;43.29
68556;HTU21D;55544;51.032;5.866;2023-04-15T11:18:09;17.95;41.33
68556;HTU21D;55544;51.032;5.866;2023-04-15T11:20:37;17.75;42.07
68556;HTU21D;55544;51.032;5.866;2023-04-15T11:23:03;17.60;43.00
68556;HTU21D;55544;51.032;5.866;2023-04-15T11:25:31;17.50;43.35
68556;HTU21D;55544;51.032;5.866;2023-04-15T11:27:58;17.43;43.91
68556;HTU21D;55544;51.032;5.866;2023-04-15T11:30:29;17.33;44.07
68556;HTU21D;55544;51.032;5.866;2023-04-15T11:32:59;17.31;44.31
68556;HTU21D;55544;51.032;5.866;2023-04-15T11:35:25;17.45;44.83
68556;HTU21D;55544;51.032;5.866;2023-04-15T11:37:51;17.64;43.96
68556;HTU21D;55544;51.032;5.866;2023-04-15T11:40:25;17.78;44.10
68556;HTU21D;55544;51.032;5.866;2023-04-15T11:46:00;17.81;44.15
68556;HTU21D;55544;51.032;5.866;2023-04-15T11:48:33;17.64;43.77
68556;HTU21D;55544;51.032;5.866;2023-04-15T11:51:01;17.39;44.22
68556;HTU21D;55544;51.032;5.866;2023-04-15T11:53:45;17.29;44.66
68556;HTU21D;55544;51.032;5.866;2023-04-15T11:56:17;17.37;44.84
68556;HTU21D;55544;51.032;5.866;2023-04-15T11:58:44;17.58;44.33
68556;HTU21D;55544;51.032;5.866;2023-04-15T12:01:11;17.83;44.09
68556;HTU21D;55544;51.032;5.866;2023-04-15T12:03:43;18.17;43.97
68556;HTU21D;55544;51.032;5.866;2023-04-15T12:11:40;18.71;42.47
68556;HTU21D;55544;51.032;5.866;2023-04-15T12:16:36;18.48;42.46
68556;HTU21D;55544;51.032;5.866;2023-04-15T12:19:09;18.55;42.67
68556;HTU21D;55544;51.032;5.866;2023-04-15T12:21:37;18.71;42.27
68556;HTU21D;55544;51.032;5.866;2023-04-15T12:24:08;18.78;42.04
68556;HTU21D;55544;51.032;5.866;2023-04-15T12:29:15;19.10;41.97
68556;HTU21D;55544;51.032;5.866;2023-04-15T12:31:52;19.10;41.94
68556;HTU21D;55544;51.032;5.866;2023-04-15T12:34:30;19.08;41.73
68556;HTU21D;55544;51.032;5.866;2023-04-15T12:36:57;19.03;41.65
68556;HTU21D;55544;51.032;5.866;2023-04-15T12:39:24;19.01;41.97
68556;HTU21D;55544;51.032;5.866;2023-04-15T12:41:51;19.07;41.82
68556;HTU21D;55544;51.032;5.866;2023-04-15T12:44:17;19.05;41.82
68556;HTU21D;55544;51.032;5.866;2023-04-15T12:46:44;19.03;42.19
68556;HTU21D;55544;51.032;5.866;2023-04-15T12:49:10;18.88;42.17
68556;HTU21D;55544;51.032;5.866;2023-04-15T12:51:36;18.66;42.74
68556;HTU21D;55544;51.032;5.866;2023-04-15T12:54:01;18.67;42.98
68556;HTU21D;55544;51.032;5.866;2023-04-15T12:56:27;18.82;42.80
68556;HTU21D;55544;51.032;5.866;2023-04-15T12:58:53;18.89;42.64
68556;HTU21D;55544;51.032;5.866;2023-04-15T13:01:19;18.88;42.51
68556;HTU21D;55544;51.032;5.866;2023-04-15T13:03:45;18.87;42.91
68556;HTU21D;55544;51.032;5.866;2023-04-15T13:06:11;18.84;42.83
68556;HTU21D;55544;51.032;5.866;2023-04-15T13:08:36;18.74;42.54
68556;HTU21D;55544;51.032;5.866;2023-04-15T13:11:02;18.71;42.85
68556;HTU21D;55544;51.032;5.866;2023-04-15T13:13:28;18.78;42.90
68556;HTU21D;55544;51.032;5.866;2023-04-15T13:15:56;18.85;42.41
68556;HTU21D;55544;51.032;5.866;2023-04-15T13:18:22;18.93;42.49
68556;HTU21D;55544;51.032;5.866;2023-04-15T13:20:49;19.01;42.74
68556;HTU21D;55544;51.032;5.866;2023-04-15T13:23:15;19.13;42.58
68556;HTU21D;55544;51.032;5.866;2023-04-15T13:25:41;19.28;41.65
68556;HTU21D;55544;51.032;5.866;2023-04-15T13:28:09;19.26;40.63
68556;HTU21D;55544;51.032;5.866;2023-04-15T13:30:37;19.25;40.62
68556;HTU21D;55544;51.032;5.866;2023-04-15T13:33:03;19.32;40.32
68556;HTU21D;55544;51.032;5.866;2023-04-15T13:35:30;19.51;40.29
68556;HTU21D;55544;51.032;5.866;2023-04-15T13:37:56;19.72;39.68
68556;HTU21D;55544;51.032;5.866;2023-04-15T13:40:21;19.81;39.72
68556;HTU21D;55544;51.032;5.866;2023-04-15T13:42:47;19.95;39.81
68556;HTU21D;55544;51.032;5.866;2023-04-15T13:45:13;20.21;39.46
68556;HTU21D;55544;51.032;5.866;2023-04-15T13:47:39;20.40;39.18
68556;HTU21D;55544;51.032;5.866;2023-04-15T13:50:05;20.45;38.90
68556;HTU21D;55544;51.032;5.866;2023-04-15T13:52:31;20.51;38.25
68556;HTU21D;55544;51.032;5.866;2023-04-15T13:54:57;20.65;37.79
68556;HTU21D;55544;51.032;5.866;2023-04-15T13:57:22;20.75;37.53
68556;HTU21D;55544;51.032;5.866;2023-04-15T13:59:48;20.68;37.37
68556;HTU21D;55544;51.032;5.866;2023-04-15T14:02:14;20.55;37.33
68556;HTU21D;55544;51.032;5.866;2023-04-15T14:04:40;20.30;37.77
68556;HTU21D;55544;51.032;5.866;2023-04-15T14:07:05;20.12;38.40
68556;HTU21D;55544;51.032;5.866;2023-04-15T14:09:31;20.13;39.10
68556;HTU21D;55544;51.032;5.866;2023-04-15T14:11:57;20.21;38.83
68556;HTU21D;55544;51.032;5.866;2023-04-15T14:14:24;20.09;38.60
68556;HTU21D;55544;51.032;5.866;2023-04-15T14:16:50;19.86;39.20
68556;HTU21D;55544;51.032;5.866;2023-04-15T14:19:15;19.70;39.70
68556;HTU21D;55544;51.032;5.866;2023-04-15T14:21:41;19.58;40.13
68556;HTU21D;55544;51.032;5.866;2023-04-15T14:24:07;19.59;40.49
68556;HTU21D;55544;51.032;5.866;2023-04-15T14:26:33;19.70;40.62
68556;HTU21D;55544;51.032;5.866;2023-04-15T14:28:59;19.73;40.06
68556;HTU21D;55544;51.032;5.866;2023-04-15T14:31:25;19.69;39.65
68556;HTU21D;55544;51.032;5.866;2023-04-15T14:33:50;19.56;39.52
68556;HTU21D;55544;51.032;5.866;2023-04-15T14:36:16;19.38;39.60
68556;HTU21D;55544;51.032;5.866;2023-04-15T14:38:42;19.16;40.10
68556;HTU21D;55544;51.032;5.866;2023-04-15T14:41:08;19.12;40.07
68556;HTU21D;55544;51.032;5.866;2023-04-15T14:43:34;19.02;40.10
68556;HTU21D;55544;51.032;5.866;2023-04-15T14:46:00;18.98;39.86
68556;HTU21D;55544;51.032;5.866;2023-04-15T14:48:27;18.97;39.77
68556;HTU21D;55544;51.032;5.866;2023-04-15T14:50:53;18.95;40.06
68556;HTU21D;55544;51.032;5.866;2023-04-15T14:53:19;19.07;40.10
68556;HTU21D;55544;51.032;5.866;2023-04-15T14:55:44;19.21;39.97
68556;HTU21D;55544;51.032;5.866;2023-04-15T14:58:10;19.30;39.37
68556;HTU21D;55544;51.032;5.866;2023-04-15T15:00:39;19.30;39.38
68556;HTU21D;55544;51.032;5.866;2023-04-15T15:03:09;19.14;39.75
68556;HTU21D;55544;51.032;5.866;2023-04-15T15:05:43;19.06;39.95
68556;HTU21D;55544;51.032;5.866;2023-04-15T15:08:10;18.96;40.45
68556;HTU21D;55544;51.032;5.866;2023-04-15T15:10:37;19.05;40.42
68556;HTU21D;55544;51.032;5.866;2023-04-15T15:13:04;19.03;40.23
68556;HTU21D;55544;51.032;5.866;2023-04-15T15:15:31;19.00;40.31
68556;HTU21D;55544;51.032;5.866;2023-04-15T15:17:57;18.95;40.32
68556;HTU21D;55544;51.032;5.866;2023-04-15T15:20:23;18.86;40.60
68556;HTU21D;55544;51.032;5.866;2023-04-15T15:22:50;18.88;41.16
68556;HTU21D;55544;51.032;5.866;2023-04-15T15:25:16;19.06;41.19
68556;HTU21D;55544;51.032;5.866;2023-04-15T15:27:42;19.12;40.50
68556;HTU21D;55544;51.032;5.866;2023-04-15T15:30:08;18.96;40.80
68556;HTU21D;55544;51.032;5.866;2023-04-15T15:32:33;18.82;41.33
68556;HTU21D;55544;51.032;5.866;2023-04-15T15:34:59;18.67;41.79
68556;HTU21D;55544;51.032;5.866;2023-04-15T15:37:25;18.56;41.90
68556;HTU21D;55544;51.032;5.866;2023-04-15T15:39:51;18.51;42.38
68556;HTU21D;55544;51.032;5.866;2023-04-15T15:42:30;18.77;42.38
68556;HTU21D;55544;51.032;5.866;2023-04-15T15:44:56;18.93;41.75
68556;HTU21D;55544;51.032;5.866;2023-04-15T15:47:22;18.83;41.57